This is the latest recevied weather packets stored in our database for station/object IZ0CGP. If no packets are shown the sender has not sent any weather packets the latest 10 day(s).
| Time | Temp. | Humidity | Pressure | Rain* | Wind** | Luminosity | Snow |
|---|---|---|---|---|---|---|---|
| 1787848119 | 31.67° C | 60% | 1017.7 hPa | 0 mm | - | - | - |
| 1787846313 | 33.33° C | 55% | 1017.7 hPa | 0 mm | - | - | - |
| 1787844506 | 32.78° C | 57% | 1017.7 hPa | 0 mm | - | - | - |
| 1787842700 | 32.78° C | 57% | 1017.7 hPa | 0 mm | - | - | - |
| 1787840898 | 32.78° C | 57% | 1017.7 hPa | 0 mm | - | - | - |
| 1787839097 | 32.78° C | 56% | 1017.7 hPa | 0 mm | - | - | - |
| 1787837295 | 32.78° C | 55% | 1017.7 hPa | 0 mm | - | - | - |
| 1787835486 | 33.33° C | 54% | 1016.7 hPa | 0 mm | - | - | - |
| 1787833685 | 35° C | 54% | 1016.7 hPa | 0 mm | - | - | - |
| 1787831879 | 36.11° C | 39% | 1016.7 hPa | 0 mm | - | - | - |
| 1787830067 | 35.56° C | 46% | 1016.7 hPa | 0 mm | - | - | - |
| 1787828262 | 34.44° C | 51% | 1015.7 hPa | 0 mm | - | - | - |
| 1787826458 | 32.78° C | 55% | 1016.7 hPa | 0 mm | - | - | - |
| 1787824652 | 31.67° C | 56% | 1016.7 hPa | 0 mm | - | - | - |
| 1787822848 | 31.11° C | 59% | 1016.7 hPa | 0 mm | - | - | - |
| 1787821046 | 29.44° C | 65% | 1016.7 hPa | 0 mm | - | - | - |
| 1787819243 | 29.44° C | 64% | 1017.7 hPa | 0 mm | - | - | - |
| 1787817426 | 26.67° C | 72% | 1017.7 hPa | 0 mm | - | - | - |
| 1787815619 | 25.56° C | 74% | 1016.7 hPa | 0 mm | - | - | - |
| 1787813804 | 23.89° C | 77% | 1017.7 hPa | 0 mm | - | - | - |
| 1787811998 | 23.33° C | 79% | 1016.7 hPa | 0 mm | - | - | - |
| 1787810198 | 22.22° C | 81% | 1016.7 hPa | 0 mm | - | - | - |
| 1787808383 | 22.22° C | 81% | 1017.7 hPa | 0 mm | - | - | - |
| 1787806571 | 21.11° C | 85% | 1016.7 hPa | 0 mm | - | - | - |
| 1787804763 | 20.56° C | 86% | 1016.7 hPa | 0 mm | - | - | - |
* Rain latest hour (hover to see other rain measurements)
** Current wind speed in m/s (hover to see current wind gust speed)